ADDS METAR Data INFO
IDs: Format: Raw Decoded Include TAF

Data at: 1511 UTC 21 Feb 2018

KFFX 211437Z AUTO 32006KT 10SM OVC015 M01/M05 A3043 RMK AO2 T10121051
KFFX 211417Z AUTO 33009KT 10SM OVC015 M01/M05 A3042 RMK AO2 T10111051
KFFX 211357Z AUTO 32010KT 10SM OVC013 M01/M05 A3041 RMK AO2 T10121047
KFFX 211337Z AUTO 32009KT 10SM OVC015 M01/M05 A3040 RMK AO2 T10111048
KFFX 211317Z AUTO 33010G15KT 10SM OVC015 M01/M05 A3039 RMK AO2 T10111048
KFFX 211257Z AUTO 34010KT 10SM OVC015 M01/M05 A3038 RMK AO2 T10101048
KFFX 201515Z AUTO 25006KT 10SM OVC003 11/10 A2987 RMK AO2 T01070100
KFFX 201455Z AUTO 26008KT 10SM -RA OVC005 12/11 A2987 RMK AO2 T01200111
KFFX 201435Z AUTO 25006KT 10SM RA OVC005 13/12 A2986 RMK AO2 T01250117
KFFX 201415Z AUTO 23012G17KT 10SM -RA OVC007 13/12 A2985 RMK AO2 T01260117
KFFX 201355Z AUTO 23015KT 7SM -RA OVC007 13/12 A2985 RMK AO2 T01270118
KFFX 201335Z AUTO 22013G20KT 4SM RA OVC005 13/12 A2984 RMK AO2 T01300121
KFFX 201315Z AUTO 21014G22KT 4SM RA OVC005 13/13 A2984 RMK AO2 T01340128
KFFX 201255Z AUTO 21014G19KT 7SM RA OVC005 14/13 A2983 RMK AO2 T01350128
KFFX 201235Z AUTO 20011G16KT 4SM RA OVC005 14/13 A2981 RMK AO2 T01350129
KFFX 201220Z AUTO 21013KT 7SM RA OVC007 14/13 A2981 RMK AO2 T01350129
KFFX 201159Z AUTO 21013G18KT 7SM -RA OVC007 14/13 A2979 RMK AO2 T01400131 10140 20038
KFFX 201139Z AUTO 21011G17KT 7SM RA OVC007 14/13 A2980 RMK AO2 T01370128
KFFX 201119Z AUTO 21018G23KT 7SM -RA OVC005 14/13 A2980 RMK AO2 T01380130
KFFX 201059Z AUTO 22015G23KT 7SM -RA OVC005 14/13 A2981 RMK AO2 T01370132
KFFX 201039Z AUTO 22011G15KT 10SM DZ OVC005 13/13 A2980 RMK AO2 T01320127
KFFX 201019Z AUTO 22010G15KT 10SM -RA OVC005 13/12 A2980 RMK AO2 T01280123
KFFX 200959Z AUTO 21009KT 7SM RA OVC005 13/12 A2980 RMK AO2 T01290121
KFFX 200939Z AUTO 23009G22KT 7SM RA OVC005 13/13 A2982 RMK AO2 T01310125
KFFX 200919Z AUTO 22011G15KT 7SM RA OVC005 13/12 A2980 RMK AO2 T01290121
KFFX 200859Z AUTO 22011KT 10SM DZ OVC007 13/12 A2980 RMK AO2 T01280120
KFFX 200839Z AUTO 21015G22KT 7SM -RA OVC007 13/12 A2980 RMK AO2 T01300121
KFFX 200819Z AUTO 22014G23KT 5SM RA OVC007 13/12 A2981 RMK AO2 T01310122
KFFX 200758Z AUTO 22020G27KT 5SM RA OVC007 13/12 A2981 RMK AO2 T01300121
KFFX 200738Z AUTO 22014G24KT 10SM OVC007 13/12 A2981 RMK AO2 T01290120
KFFX 200718Z AUTO 22017G24KT 10SM OVC009 13/12 A2980 RMK AO2 T01250121
KFFX 200658Z AUTO 22020G28KT 10SM OVC007 13/12 A2980 RMK AO2 T01260122
KFFX 200638Z AUTO 22017G25KT 10SM SCT002 OVC007 12/12 A2980 RMK AO2 T01220118
KFFX 200618Z AUTO 20007KT 1/4SM -RA OVC002 06/05 A2980 RMK AO2 T00610052
KFFX 200558Z AUTO 11003KT 1/2SM -RA OVC002 04/03 A2982 RMK AO2 T00380028 10039 20032 400460009
KFFX 200538Z AUTO 11005KT 1SM -RA OVC002 04/03 A2982 RMK AO2 T00360026
KFFX 200518Z AUTO 10005KT 3SM RA OVC002 04/03 A2982 RMK AO2 T00370027
KFFX 200456Z AUTO 10006KT 10SM -RA OVC004 04/03 A2983 RMK AO2 T00370026
KFFX 200436Z AUTO 12007KT 10SM OVC004 04/03 A2983 RMK AO2 T00380027
KFFX 200416Z AUTO 11009KT 10SM -RA BKN004 OVC009 04/03 A2983 RMK AO2 T00370027
KFFX 200356Z AUTO 10007KT 5SM RA BKN008 OVC013 04/03 A2984 RMK AO2 T00380027
KFFX 200336Z AUTO 09008KT 1 1/2SM +RA SCT003 OVC008 04/03 A2984 RMK AO2 T00350025
KFFX 200316Z AUTO 09011KT 4SM -RA SCT003 OVC008 04/03 A2985 RMK AO2 T00370026